Time,TemperatureF,DewpointF,PressureIn,WindDirection,WindDirectionDegrees,WindSpeedMPH,WindSpeedGustMPH,Humidity,HourlyPrecipIn,Conditions,Clouds,dailyrainin,SolarRadiationWatts/m^2,SoftwareType,DateUTC
2013-09-19 00:02:00,85.0,46.0,-100.00,SW,225,8.0,12.0,26,0.00,,,0.00,0.000000,,2013-09-19 07:02:00,
2013-09-19 00:11:00,85.0,46.0,-100.00,SW,225,8.0,12.0,26,0.00,,,0.00,0.000000,,2013-09-19 07:11:00,
2013-09-19 00:21:00,85.0,46.0,-100.00,SW,225,8.0,12.0,26,0.00,,,0.00,0.000000,,2013-09-19 07:21:00,
2013-09-19 00:52:00,86.0,50.0,-100.00,SW,230,8.0,12.0,29,0.00,,,0.00,0.000000,,2013-09-19 07:52:00,
2013-09-19 01:02:00,86.0,50.0,-100.00,SW,230,8.0,12.0,29,0.00,,,0.00,0.000000,,2013-09-19 08:02:00,
2013-09-19 01:11:00,86.0,50.0,-100.00,SW,230,8.0,12.0,29,0.00,,,0.00,0.000000,,2013-09-19 08:11:00,
2013-09-19 01:21:00,86.0,50.0,-100.00,SW,230,8.0,12.0,29,0.00,,,0.00,0.000000,,2013-09-19 08:21:00,
2013-09-19 01:52:00,82.0,51.0,-100.00,South,172,4.0,11.0,34,0.00,,,0.00,0.000000,,2013-09-19 08:52:00,
2013-09-19 02:02:00,82.0,51.0,-100.00,South,172,4.0,11.0,34,0.00,,,0.00,0.000000,,2013-09-19 09:02:00,
2013-09-19 02:11:00,82.0,51.0,-100.00,South,172,4.0,11.0,34,0.00,,,0.00,0.000000,,2013-09-19 09:11:00,
2013-09-19 02:21:00,82.0,51.0,-100.00,South,172,4.0,11.0,34,0.00,,,0.00,0.000000,,2013-09-19 09:21:00,
2013-09-19 02:53:00,79.0,53.0,-100.00,SSE,153,2.0,8.0,40,0.00,,,0.00,0.000000,,2013-09-19 09:53:00,
2013-09-19 03:03:00,79.0,53.0,-100.00,SSE,153,2.0,8.0,40,0.00,,,0.00,0.000000,,2013-09-19 10:03:00,
2013-09-19 03:12:00,79.0,53.0,-100.00,SSE,153,2.0,8.0,40,0.00,,,0.00,0.000000,,2013-09-19 10:12:00,
2013-09-19 03:23:00,79.0,53.0,-100.00,SSE,153,2.0,8.0,40,0.00,,,0.00,0.000000,,2013-09-19 10:23:00,
2013-09-19 04:22:00,76.0,56.0,-100.00,ESE,109,0.0,4.0,50,0.00,,,0.00,0.000000,,2013-09-19 11:22:00,
2013-09-19 04:52:00,76.0,55.0,-100.00,South,174,0.0,3.0,49,0.00,,,0.00,0.000000,,2013-09-19 11:52:00,
2013-09-19 05:01:00,76.0,55.0,-100.00,South,174,0.0,3.0,49,0.00,,,0.00,0.000000,,2013-09-19 12:01:00,
2013-09-19 05:11:00,76.0,55.0,-100.00,South,174,0.0,3.0,49,0.00,,,0.00,0.000000,,2013-09-19 12:11:00,
2013-09-19 05:21:00,76.0,55.0,-100.00,South,174,0.0,3.0,49,0.00,,,0.00,0.000000,,2013-09-19 12:21:00,
2013-09-19 06:21:00,74.0,57.0,-100.00,SSW,192,0.0,4.0,55,0.00,,,0.00,0.000000,,2013-09-19 13:21:00,
2013-09-19 07:52:00,77.0,56.0,-100.00,North,3,0.0,1.0,49,0.00,,,0.00,71.000000,,2013-09-19 14:52:00,
2013-09-19 08:01:00,77.0,56.0,-100.00,North,3,0.0,1.0,49,0.00,,,0.00,71.000000,,2013-09-19 15:01:00,
2013-09-19 08:11:00,77.0,56.0,-100.00,North,3,0.0,1.0,49,0.00,,,0.00,71.000000,,2013-09-19 15:11:00,
2013-09-19 08:21:00,77.0,56.0,-100.00,North,3,0.0,1.0,49,0.00,,,0.00,71.000000,,2013-09-19 15:21:00,
2013-09-19 10:12:00,88.0,49.0,-100.00,South,179,1.0,5.0,26,0.00,,,0.00,486.000000,,2013-09-19 17:12:00,
2013-09-19 10:23:00,88.0,49.0,-100.00,South,179,1.0,5.0,26,0.00,,,0.00,486.000000,,2013-09-19 17:23:00,
2013-09-19 10:53:00,91.0,54.0,-100.00,SSE,160,1.0,6.0,29,0.00,,,0.00,757.000000,,2013-09-19 17:53:00,
2013-09-19 11:02:00,91.0,54.0,-100.00,SSE,160,1.0,6.0,29,0.00,,,0.00,757.000000,,2013-09-19 18:02:00,
2013-09-19 11:11:00,91.0,54.0,-100.00,SSE,160,1.0,6.0,29,0.00,,,0.00,757.000000,,2013-09-19 18:11:00,
2013-09-19 11:22:00,91.0,54.0,-100.00,SSE,160,1.0,6.0,29,0.00,,,0.00,757.000000,,2013-09-19 18:22:00,
2013-09-19 11:52:00,96.0,50.0,-100.00,West,281,0.0,7.0,21,0.00,,,0.00,922.000000,,2013-09-19 18:52:00,
2013-09-19 12:02:00,96.0,50.0,-100.00,West,281,0.0,7.0,21,0.00,,,0.00,922.000000,,2013-09-19 19:02:00,
2013-09-19 12:12:00,96.0,50.0,-100.00,West,281,0.0,7.0,21,0.00,,,0.00,922.000000,,2013-09-19 19:12:00,
2013-09-19 12:21:00,96.0,50.0,-100.00,West,281,0.0,7.0,21,0.00,,,0.00,922.000000,,2013-09-19 19:21:00,
2013-09-19 13:12:00,101.0,46.0,-100.00,NE,53,0.0,6.0,16,0.00,,,0.00,1075.000000,,2013-09-19 20:12:00,
2013-09-19 13:21:00,101.0,46.0,-100.00,NE,53,0.0,6.0,16,0.00,,,0.00,1075.000000,,2013-09-19 20:21:00,
2013-09-19 13:52:00,100.0,40.0,-100.00,NE,51,0.0,6.0,13,0.00,,,0.00,1092.000000,,2013-09-19 20:52:00,
2013-09-19 14:02:00,100.0,40.0,-100.00,NE,51,0.0,6.0,13,0.00,,,0.00,1092.000000,,2013-09-19 21:02:00,
2013-09-19 14:11:00,100.0,40.0,-100.00,NE,51,0.0,6.0,13,0.00,,,0.00,1092.000000,,2013-09-19 21:11:00,
2013-09-19 14:22:00,100.0,40.0,-100.00,NE,51,0.0,6.0,13,0.00,,,0.00,1092.000000,,2013-09-19 21:22:00,
2013-09-19 14:55:00,102.0,40.0,-100.00,ESE,114,2.0,11.0,12,0.00,,,0.00,1021.000000,,2013-09-19 21:55:00,
2013-09-19 15:04:00,102.0,40.0,-100.00,ESE,114,2.0,11.0,12,0.00,,,0.00,1021.000000,,2013-09-19 22:04:00,
2013-09-19 15:14:00,102.0,40.0,-100.00,ESE,114,2.0,11.0,12,0.00,,,0.00,1021.000000,,2013-09-19 22:14:00,
2013-09-19 15:24:00,102.0,40.0,-100.00,ESE,114,2.0,11.0,12,0.00,,,0.00,1021.000000,,2013-09-19 22:24:00,
2013-09-19 15:53:00,104.0,37.0,-100.00,ENE,66,0.0,7.0,10,0.00,,,0.00,871.000000,,2013-09-19 22:53:00,
2013-09-19 16:03:00,104.0,37.0,-100.00,ENE,66,0.0,7.0,10,0.00,,,0.00,871.000000,,2013-09-19 23:03:00,
2013-09-19 16:12:00,104.0,37.0,-100.00,ENE,66,0.0,7.0,10,0.00,,,0.00,871.000000,,2013-09-19 23:12:00,
2013-09-19 16:22:00,104.0,37.0,-100.00,ENE,66,0.0,7.0,10,0.00,,,0.00,871.000000,,2013-09-19 23:22:00,
2013-09-19 16:53:00,106.0,38.0,-100.00,North,9,0.0,6.0,10,0.00,,,-99.99,654.000000,,2013-09-19 23:53:00,
2013-09-19 17:02:00,106.0,38.0,-100.00,North,9,0.0,6.0,10,0.00,,,-99.99,654.000000,,2013-09-20 00:02:00,
2013-09-19 17:12:00,106.0,38.0,-100.00,North,9,0.0,6.0,10,0.00,,,-99.99,654.000000,,2013-09-20 00:12:00,
2013-09-19 17:21:00,106.0,38.0,-100.00,North,9,0.0,6.0,10,0.00,,,-99.99,654.000000,,2013-09-20 00:21:00,
2013-09-19 17:52:00,105.0,40.0,-100.00,NNE,33,0.0,4.0,11,0.00,,,0.00,391.000000,,2013-09-20 00:52:00,
2013-09-19 18:02:00,105.0,40.0,-100.00,NNE,33,0.0,4.0,11,0.00,,,0.00,391.000000,,2013-09-20 01:02:00,
2013-09-19 18:12:00,105.0,40.0,-100.00,NNE,33,0.0,4.0,11,0.00,,,0.00,391.000000,,2013-09-20 01:12:00,
2013-09-19 18:22:00,105.0,40.0,-100.00,NNE,33,0.0,4.0,11,0.00,,,0.00,391.000000,,2013-09-20 01:22:00,
2013-09-19 18:52:00,100.0,38.0,-100.00,South,177,0.0,8.0,12,0.00,,,0.00,102.000000,,2013-09-20 01:52:00,
2013-09-19 19:02:00,100.0,38.0,-100.00,South,177,0.0,8.0,12,0.00,,,0.00,102.000000,,2013-09-20 02:02:00,
2013-09-19 19:12:00,100.0,38.0,-100.00,South,177,0.0,8.0,12,0.00,,,0.00,102.000000,,2013-09-20 02:12:00,
2013-09-19 19:22:00,100.0,38.0,-100.00,South,177,0.0,8.0,12,0.00,,,0.00,102.000000,,2013-09-20 02:22:00,
2013-09-19 19:52:00,93.0,47.0,-100.00,North,6,0.0,5.0,21,0.00,,,0.00,2.000000,,2013-09-20 02:52:00,
2013-09-19 20:02:00,93.0,47.0,-100.00,North,6,0.0,5.0,21,0.00,,,0.00,2.000000,,2013-09-20 03:02:00,
2013-09-19 20:12:00,93.0,47.0,-100.00,North,6,0.0,5.0,21,0.00,,,0.00,2.000000,,2013-09-20 03:12:00,
2013-09-19 20:22:00,93.0,47.0,-100.00,North,6,0.0,5.0,21,0.00,,,0.00,2.000000,,2013-09-20 03:22:00,
2013-09-19 20:56:00,91.0,50.0,-100.00,WNW,285,0.0,2.0,25,0.00,,,0.00,0.000000,,2013-09-20 03:56:00,
2013-09-19 21:05:00,91.0,50.0,-100.00,WNW,285,0.0,2.0,25,0.00,,,0.00,0.000000,,2013-09-20 04:05:00,
2013-09-19 21:14:00,91.0,50.0,-100.00,WNW,285,0.0,2.0,25,0.00,,,0.00,0.000000,,2013-09-20 04:14:00,
2013-09-19 21:24:00,91.0,50.0,-100.00,WNW,285,0.0,2.0,25,0.00,,,0.00,0.000000,,2013-09-20 04:24:00,
2013-09-19 21:54:00,89.0,47.0,-100.00,South,174,1.0,4.0,24,0.00,,,0.00,0.000000,,2013-09-20 04:54:00,
2013-09-19 22:03:00,89.0,47.0,-100.00,South,174,1.0,4.0,24,0.00,,,0.00,0.000000,,2013-09-20 05:03:00,
2013-09-19 22:13:00,89.0,47.0,-100.00,South,174,1.0,4.0,24,0.00,,,0.00,0.000000,,2013-09-20 05:13:00,
2013-09-19 22:23:00,89.0,47.0,-100.00,South,174,1.0,4.0,24,0.00,,,0.00,0.000000,,2013-09-20 05:23:00,
2013-09-19 22:53:00,90.0,48.0,-100.00,South,175,2.0,4.0,24,0.00,,,0.00,0.000000,,2013-09-20 05:53:00,
2013-09-19 23:03:00,90.0,48.0,-100.00,South,175,2.0,4.0,24,0.00,,,0.00,0.000000,,2013-09-20 06:03:00,
2013-09-19 23:12:00,90.0,48.0,-100.00,South,175,2.0,4.0,24,0.00,,,0.00,0.000000,,2013-09-20 06:12:00,
2013-09-19 23:22:00,90.0,48.0,-100.00,South,175,2.0,4.0,24,0.00,,,0.00,0.000000,,2013-09-20 06:22:00,
2013-09-19 23:52:00,85.0,53.0,-100.00,South,184,6.0,9.0,34,0.00,,,0.00,0.000000,,2013-09-20 06:52:00,